Nipawin, Canada
Current Conditions -  °F | °C
As of 3:00 PM on Sunday 23 Nov 2014 (Local Time) from CYBU Reporting Station
Clear Clear  
Wind Chill:   Ceiling: Unl
Heat Index:   Visibility: 9mi
Dew Point:   Wind: 3mph
Humidity: 78%   Direction: 320°NW
Pressure: 29.89"   Gusts: NA
Location:  53.37°N, 104.02°W
Report Text: CYBU 232100Z AUTO 32003KT 9SM CLR M15/M18 A2989 RMK SLP156
Loading
Personal Weather Stations






























Interactive Weather Map New forecast layout! Learn more

10-Day Weather Forecast

Advertisements
Track Severe Weather on mobile